Time;durP1;ratioP1;P1;durP2;ratioP2;P2;SDS_P1;SDS_P2;PMS_P1;PMS_P2;Temp;Humidity;BMP_temperature;BMP_pressure;BME280_temperature;BME280_humidity;BME280_pressure;Samples;Min_cycle;Max_cycle;Signal;HPM_P1;HPM_P2
2023/03/02 00:00:27;;;;;;;9.17;6.50;;;;;;;-0.29;69.37;102240.69;5262411;28;20029;-70
2023/03/02 00:03:00;;;;;;;11.00;6.30;;;;;;;-0.34;69.83;102238.66;5262075;28;20033;-70
2023/03/02 00:05:34;;;;;;;8.55;5.82;;;;;;;-0.35;70.08;102235.22;5244377;28;20025;-69
2023/03/02 00:08:08;;;;;;;13.57;6.18;;;;;;;-0.46;70.94;102234.63;5262449;28;20056;-70
2023/03/02 00:10:39;;;;;;;9.00;6.20;;;;;;;-0.58;71.37;102231.38;5262231;28;20163;-70
2023/03/02 00:13:11;;;;;;;11.23;7.13;;;;;;;-0.77;71.10;102229.47;5262147;28;20494;-69
2023/03/02 00:15:43;;;;;;;11.77;7.28;;;;;;;-0.80;71.12;102227.63;5262386;28;20025;-70
2023/03/02 00:18:14;;;;;;;12.40;7.07;;;;;;;-0.92;71.55;102229.47;5262350;28;20078;-69
2023/03/02 00:20:45;;;;;;;15.00;8.53;;;;;;;-1.10;72.66;102224.19;5262734;28;20056;-70
2023/03/02 00:23:17;;;;;;;13.07;7.13;;;;;;;-1.07;73.09;102224.34;5261954;28;20040;-69
2023/03/02 00:25:49;;;;;;;8.52;6.10;;;;;;;-1.15;74.03;102223.91;5262576;28;20436;-69
2023/03/02 00:28:20;;;;;;;11.00;7.33;;;;;;;-1.26;74.36;102219.84;5261019;28;20033;-70
2023/03/02 00:30:52;;;;;;;8.40;6.63;;;;;;;-1.23;74.15;102227.69;5262416;28;20086;-70
2023/03/02 00:33:23;;;;;;;9.53;6.30;;;;;;;-1.24;74.06;102217.38;5260404;28;20025;-69
2023/03/02 00:35:54;;;;;;;10.00;6.97;;;;;;;-1.17;74.37;102222.94;5261089;28;20057;-70
2023/03/02 00:38:27;;;;;;;11.30;6.63;;;;;;;-1.13;74.37;102229.13;5277493;28;20109;-70
2023/03/02 00:40:58;;;;;;;10.45;6.22;;;;;;;-1.13;74.64;102239.34;5262018;28;20037;-70
2023/03/02 00:43:30;;;;;;;13.30;6.63;;;;;;;-1.19;74.45;102236.44;5261991;28;20025;-70
2023/03/02 00:46:11;;;;;;;9.57;6.30;;;;;;;-1.13;75.09;102239.34;5261978;28;20052;-70
2023/03/02 00:48:42;;;;;;;13.10;7.00;;;;;;;-1.31;74.91;102236.59;5262193;28;20380;-70
2023/03/02 00:51:14;;;;;;;9.33;6.60;;;;;;;-1.41;75.64;102222.38;5261990;28;20028;-70
2023/03/02 00:53:46;;;;;;;14.00;6.50;;;;;;;-1.49;76.00;102224.47;5262156;28;20150;-70
2023/03/02 00:56:17;;;;;;;11.63;6.77;;;;;;;-1.52;76.40;102226.84;5261899;28;20282;-70
2023/03/02 00:58:48;;;;;;;10.77;6.93;;;;;;;-1.55;77.09;102228.34;5262184;28;20044;-70
2023/03/02 01:01:20;;;;;;;10.20;6.90;;;;;;;-1.52;77.01;102216.63;5261886;28;20405;-71
2023/03/02 01:03:51;;;;;;;12.73;6.70;;;;;;;-1.49;77.27;102219.38;5261195;28;20093;-70
2023/03/02 01:06:22;;;;;;;11.00;6.90;;;;;;;-1.54;77.33;102223.34;5260440;28;20542;-70
2023/03/02 01:08:54;;;;;;;10.60;6.33;;;;;;;-1.55;77.17;102224.13;5260445;28;20033;-70
2023/03/02 01:11:25;;;;;;;9.90;6.93;;;;;;;-1.52;76.71;102214.06;5261992;28;20078;-70
2023/03/02 01:13:56;;;;;;;11.67;6.63;;;;;;;-1.57;77.61;102217.16;5261161;28;20040;-69
2023/03/02 01:16:28;;;;;;;10.13;6.20;;;;;;;-1.53;77.25;102209.75;5261969;28;20059;-70
2023/03/02 01:18:59;;;;;;;9.27;6.10;;;;;;;-1.61;77.41;102211.00;5260495;28;20034;-70
2023/03/02 01:21:30;;;;;;;10.87;6.87;;;;;;;-1.59;77.40;102203.41;5258749;28;20362;-70
2023/03/02 01:24:02;;;;;;;10.83;7.10;;;;;;;-1.55;77.44;102198.53;5275557;28;20037;-70
2023/03/02 01:26:33;;;;;;;10.67;6.37;;;;;;;-1.53;76.79;102196.06;5278426;28;20029;-70
2023/03/02 01:29:05;;;;;;;10.07;6.47;;;;;;;-1.54;77.13;102196.88;5268977;28;20111;-70
2023/03/02 01:31:37;;;;;;;12.77;7.07;;;;;;;-1.51;76.90;102202.19;5272765;28;20043;-70
2023/03/02 01:34:08;;;;;;;10.43;6.30;;;;;;;-1.63;77.62;102196.34;5261326;28;20036;-70
2023/03/02 01:36:40;;;;;;;12.10;7.60;;;;;;;-1.62;77.74;102203.22;5261656;28;20029;-70
2023/03/02 01:39:14;;;;;;;13.00;7.67;;;;;;;-1.74;78.54;102195.69;5264192;28;20056;-70
2023/03/02 01:41:46;;;;;;;10.15;6.28;;;;;;;-1.62;78.07;102193.88;5268214;28;20099;-70
2023/03/02 01:44:41;;;;;;;12.90;6.97;;;;;;;-1.66;77.98;102190.25;5261387;28;20072;-70
2023/03/02 01:47:20;;;;;;;9.77;6.75;;;;;;;-1.74;78.21;102186.38;5260909;28;20040;-71
2023/03/02 01:49:57;;;;;;;11.00;7.15;;;;;;;-1.66;78.10;102189.34;5261662;28;20029;-70
2023/03/02 01:52:33;;;;;;;10.10;6.75;;;;;;;-1.77;78.27;102183.63;5261431;28;20383;-70
2023/03/02 01:55:07;;;;;;;10.45;7.32;;;;;;;-1.66;78.51;102185.16;5261290;28;20037;-70
2023/03/02 01:57:44;;;;;;;12.32;7.70;;;;;;;-1.77;78.84;102182.72;5272515;28;20054;-70
2023/03/02 02:00:36;;;;;;;11.80;7.45;;;;;;;-1.78;79.40;102181.84;5261642;28;20025;-70
2023/03/02 02:03:19;;;;;;;11.70;7.57;;;;;;;-1.76;79.44;102180.25;5248485;28;20045;-70
2023/03/02 02:06:17;;;;;;;11.82;7.95;;;;;;;-1.79;80.06;102176.63;5261170;28;20033;-70
2023/03/02 02:08:50;;;;;;;24.25;12.73;;;;;;;-1.82;79.83;102172.22;5261510;28;20353;-70
2023/03/02 02:11:21;;;;;;;12.63;7.90;;;;;;;-1.81;80.44;102170.56;5261165;28;20045;-70
2023/03/02 02:13:56;;;;;;;12.97;9.30;;;;;;;-1.79;80.34;102179.19;5257712;28;20046;-70
2023/03/02 02:16:31;;;;;;;12.20;7.28;;;;;;;-1.85;80.75;102178.03;5255084;28;20087;-70
2023/03/02 02:19:11;;;;;;;17.35;9.05;;;;;;;-1.86;80.79;102173.72;5264528;28;20029;-70
2023/03/02 02:21:43;;;;;;;12.07;8.13;;;;;;;-1.85;80.74;102178.03;5264836;28;20040;-70
2023/03/02 02:24:24;;;;;;;18.87;13.80;;;;;;;-1.88;80.90;102171.88;5264995;28;20033;-70
2023/03/02 02:26:56;;;;;;;14.10;10.20;;;;;;;-1.80;80.70;102173.22;5264470;28;20021;-70
2023/03/02 02:29:44;;;;;;;15.87;9.57;;;;;;;-1.90;81.18;102171.78;5264850;28;20510;-69
2023/03/02 02:32:25;;;;;;;17.17;12.00;;;;;;;-1.90;81.15;102158.09;5275119;28;20464;-68
2023/03/02 02:35:20;;;;;;;12.55;8.07;;;;;;;-1.99;81.22;102168.66;5264237;28;20029;-69
2023/03/02 02:37:56;;;;;;;11.57;7.47;;;;;;;-1.98;81.51;102165.31;5263682;28;20029;-69
2023/03/02 02:40:44;;;;;;;14.63;8.23;;;;;;;-2.07;82.03;102160.53;5250702;28;20036;-69
2023/03/02 02:43:19;;;;;;;15.07;7.70;;;;;;;-2.09;81.89;102154.44;5264285;28;20033;-68
2023/03/02 02:45:54;;;;;;;14.50;8.70;;;;;;;-2.12;81.89;102151.69;5264454;28;20073;-69
2023/03/02 02:48:29;;;;;;;13.57;8.85;;;;;;;-2.15;82.25;102145.53;5263936;28;20037;-69
2023/03/02 02:51:01;;;;;;;13.43;8.75;;;;;;;-2.18;82.70;102163.22;5263184;28;20456;-69
2023/03/02 02:53:45;;;;;;;13.80;9.18;;;;;;;-2.21;83.05;102154.59;5252418;28;20032;-69
2023/03/02 02:56:18;;;;;;;19.88;12.60;;;;;;;-2.26;83.29;102149.97;5264522;28;20083;-69
2023/03/02 02:58:53;;;;;;;17.23;11.18;;;;;;;-2.29;84.00;102154.88;5264166;28;20506;-69
2023/03/02 03:01:25;;;;;;;14.57;9.20;;;;;;;-2.33;84.70;102164.03;5264024;28;20052;-69
2023/03/02 03:04:01;;;;;;;13.27;9.90;;;;;;;-2.38;85.00;102155.22;5262331;28;20036;-69
2023/03/02 03:06:37;;;;;;;17.90;11.35;;;;;;;-2.37;86.30;102156.97;5262794;28;20075;-69
2023/03/02 03:09:11;;;;;;;15.23;10.05;;;;;;;-2.35;86.23;102154.50;5263978;28;20021;-69
2023/03/02 03:11:46;;;;;;;14.00;10.18;;;;;;;-2.36;86.95;102162.97;5296000;28;20139;-69
2023/03/02 03:14:29;;;;;;;19.63;11.80;;;;;;;-2.47;87.48;102150.41;5263626;28;20417;-69
2023/03/02 03:17:01;;;;;;;17.40;11.95;;;;;;;-2.45;87.01;102160.72;5263220;28;20025;-69
2023/03/02 03:19:32;;;;;;;18.27;11.90;;;;;;;-2.50;88.25;102159.56;5263988;28;20060;-69
2023/03/02 03:22:03;;;;;;;20.63;13.13;;;;;;;-2.44;88.00;102155.69;5263479;28;20071;-69
2023/03/02 03:24:35;;;;;;;17.43;12.47;;;;;;;-2.48;88.23;102152.84;5263647;28;20095;-69
2023/03/02 03:27:09;;;;;;;20.13;13.30;;;;;;;-2.50;89.16;102150.22;5294515;28;20024;-69
2023/03/02 03:29:44;;;;;;;21.10;14.93;;;;;;;-2.48;90.61;102145.19;5263618;28;20032;-69
2023/03/02 03:32:16;;;;;;;27.38;17.23;;;;;;;-2.53;90.63;102144.91;5273905;28;20483;-68
2023/03/02 03:34:47;;;;;;;23.10;15.85;;;;;;;-2.57;91.44;102143.84;5262930;28;20056;-70
2023/03/02 03:37:19;;;;;;;25.97;16.43;;;;;;;-2.59;92.23;102145.44;5263459;28;20175;-69
2023/03/02 03:39:50;;;;;;;26.63;18.07;;;;;;;-2.58;92.78;102148.84;5261766;28;20472;-69
2023/03/02 03:42:22;;;;;;;25.47;16.83;;;;;;;-2.61;93.59;102148.66;5263402;28;20041;-69
2023/03/02 03:44:54;;;;;;;30.38;20.23;;;;;;;-2.61;93.87;102149.56;5258275;28;20030;-69
2023/03/02 03:47:25;;;;;;;31.37;19.83;;;;;;;-2.62;94.92;102147.78;5254335;28;20389;-69
2023/03/02 03:49:57;;;;;;;33.67;22.10;;;;;;;-2.63;95.38;102148.56;5262987;28;20044;-70
2023/03/02 03:52:30;;;;;;;34.33;22.13;;;;;;;-2.68;96.27;102149.06;5262730;28;20040;-69
2023/03/02 03:55:02;;;;;;;33.65;21.77;;;;;;;-2.67;96.55;102151.72;5262737;28;20472;-69
2023/03/02 03:57:34;;;;;;;31.55;21.80;;;;;;;-2.70;96.75;102148.09;5261668;28;20040;-70
2023/03/02 04:00:09;;;;;;;36.07;22.13;;;;;;;-2.69;96.94;102153.28;5262945;28;20048;-70
2023/03/02 04:02:40;;;;;;;34.25;23.17;;;;;;;-2.77;98.54;102149.34;5262576;28;20056;-70
2023/03/02 04:05:13;;;;;;;35.70;24.27;;;;;;;-2.73;98.88;102155.56;5262582;28;20090;-70
2023/03/02 04:07:44;;;;;;;36.70;25.00;;;;;;;-2.72;99.10;102155.66;5253363;28;20465;-69
2023/03/02 04:10:15;;;;;;;42.27;25.57;;;;;;;-2.73;99.18;102156.44;5252934;28;20107;-69
2023/03/02 04:12:47;;;;;;;39.40;25.37;;;;;;;-2.76;99.30;102148.59;5261574;28;20410;-69
2023/03/02 04:15:18;;;;;;;38.43;25.57;;;;;;;-2.80;99.89;102150.06;5262709;28;20409;-70
2023/03/02 04:17:50;;;;;;;35.07;25.30;;;;;;;-2.78;100.00;102157.81;5262779;28;20021;-69
2023/03/02 04:20:23;;;;;;;39.08;25.83;;;;;;;-2.81;100.00;102150.84;5266842;28;20082;-69
2023/03/02 04:22:56;;;;;;;37.80;25.00;;;;;;;-2.83;100.00;102149.88;5263572;28;20079;-69
2023/03/02 04:25:29;;;;;;;43.78;27.45;;;;;;;-2.85;100.00;102145.44;5277403;28;20037;-69
2023/03/02 04:28:00;;;;;;;39.75;27.50;;;;;;;-2.87;100.00;102144.47;5260503;28;20040;-69
2023/03/02 04:30:32;;;;;;;41.27;26.43;;;;;;;-2.85;100.00;102146.34;5265931;28;20036;-70
2023/03/02 04:33:03;;;;;;;44.47;26.77;;;;;;;-2.90;100.00;102141.72;5268337;28;20029;-69
2023/03/02 04:35:35;;;;;;;45.50;27.50;;;;;;;-2.84;100.00;102142.09;5262481;28;20044;-69
2023/03/02 04:38:07;;;;;;;41.95;26.40;;;;;;;-2.88;100.00;102141.03;5261309;28;20033;-68
2023/03/02 04:40:38;;;;;;;42.00;27.47;;;;;;;-2.90;100.00;102147.69;5262165;28;20055;-69
2023/03/02 04:43:09;;;;;;;43.10;27.57;;;;;;;-2.91;100.00;102148.50;5259583;28;20032;-68
2023/03/02 04:45:41;;;;;;;40.73;27.17;;;;;;;-2.93;100.00;102150.03;5253369;28;20033;-68
2023/03/02 04:48:12;;;;;;;43.93;29.37;;;;;;;-2.93;100.00;102142.38;5252481;28;20107;-69
2023/03/02 04:50:44;;;;;;;42.00;27.30;;;;;;;-2.94;100.00;102143.19;5275543;28;20039;-69
2023/03/02 04:53:16;;;;;;;41.77;26.57;;;;;;;-3.00;100.00;102142.78;5261499;28;20029;-69
2023/03/02 04:55:47;;;;;;;40.40;26.93;;;;;;;-2.97;100.00;102146.41;5262126;28;20472;-69
2023/03/02 04:58:19;;;;;;;44.13;26.20;;;;;;;-2.95;100.00;102151.63;5262075;28;20491;-69
2023/03/02 05:00:50;;;;;;;38.23;25.73;;;;;;;-3.02;100.00;102147.81;5261426;28;20303;-68
2023/03/02 05:03:22;;;;;;;41.07;26.50;;;;;;;-3.01;100.00;102138.47;5261476;28;20037;-68
2023/03/02 05:05:53;;;;;;;43.60;26.90;;;;;;;-3.03;100.00;102142.59;5260406;28;20063;-68
2023/03/02 05:08:24;;;;;;;43.60;27.67;;;;;;;-3.02;100.00;102141.81;5261472;28;20078;-68
2023/03/02 05:10:57;;;;;;;45.27;27.60;;;;;;;-3.02;100.00;102157.13;5261713;28;20064;-68
2023/03/02 05:13:28;;;;;;;42.33;27.00;;;;;;;-3.06;100.00;102150.91;5261570;28;20086;-69
2023/03/02 05:16:00;;;;;;;44.77;27.10;;;;;;;-3.05;100.00;102147.59;5244014;28;20476;-69
2023/03/02 05:18:31;;;;;;;40.50;27.40;;;;;;;-3.06;100.00;102152.59;5261410;28;20393;-69
2023/03/02 05:21:02;;;;;;;39.17;26.93;;;;;;;-3.11;100.00;102157.41;5261740;28;20029;-69
2023/03/02 05:23:34;;;;;;;42.27;26.80;;;;;;;-3.12;100.00;102150.56;5261181;28;20067;-69
2023/03/02 05:26:06;;;;;;;44.53;28.27;;;;;;;-3.14;100.00;102152.09;5261038;28;20036;-69
2023/03/02 05:28:38;;;;;;;46.35;28.20;;;;;;;-3.13;100.00;102148.78;5261160;28;20400;-70
2023/03/02 05:31:18;;;;;;;41.53;25.33;;;;;;;-3.17;100.00;102151.91;5270087;28;20029;-70
2023/03/02 05:33:49;;;;;;;39.45;27.00;;;;;;;-3.18;100.00;102155.25;5261501;28;20029;-69
2023/03/02 05:36:21;;;;;;;42.67;27.30;;;;;;;-3.21;100.00;102147.41;5261341;28;20033;-69
2023/03/02 05:38:53;;;;;;;41.67;26.55;;;;;;;-3.23;100.00;102154.06;5261847;28;20098;-70
2023/03/02 05:41:24;;;;;;;42.80;26.20;;;;;;;-3.26;100.00;102148.78;5261053;28;20045;-70
2023/03/02 05:43:56;;;;;;;47.50;27.57;;;;;;;-3.31;100.00;102158.66;5260905;28;20039;-69
2023/03/02 05:46:27;;;;;;;45.93;27.50;;;;;;;-3.33;100.00;102150.03;5261518;28;20492;-69
2023/03/02 05:48:59;;;;;;;50.77;27.40;;;;;;;-3.35;100.00;102149.94;5261465;28;20108;-69
2023/03/02 05:51:30;;;;;;;48.77;29.47;;;;;;;-3.34;100.00;102148.25;5264378;28;20112;-70
2023/03/02 05:54:01;;;;;;;45.13;28.80;;;;;;;-3.35;100.00;102149.03;5280848;28;20033;-69
2023/03/02 05:56:33;;;;;;;48.13;28.33;;;;;;;-3.35;100.00;102149.94;5265282;28;20384;-69
2023/03/02 05:59:04;;;;;;;48.00;29.20;;;;;;;-3.35;100.00;102147.38;5265790;28;20059;-69
2023/03/02 06:01:35;;;;;;;47.00;28.97;;;;;;;-3.36;100.00;102150.72;5265218;28;20037;-70
2023/03/02 06:04:07;;;;;;;51.10;30.83;;;;;;;-3.39;100.00;102142.84;5265279;28;20059;-70
2023/03/02 06:06:38;;;;;;;49.07;30.07;;;;;;;-3.37;100.00;102148.06;5266121;28;20094;-69
2023/03/02 06:09:10;;;;;;;48.40;31.00;;;;;;;-3.42;100.00;102147.75;5264344;28;20223;-69
2023/03/02 06:11:41;;;;;;;57.67;30.43;;;;;;;-3.42;100.00;102151.97;5265692;28;20053;-70
2023/03/02 06:14:13;;;;;;;50.97;30.90;;;;;;;-3.48;100.00;102144.78;5263907;28;20035;-70
2023/03/02 06:16:47;;;;;;;54.30;32.33;;;;;;;-3.45;100.00;102139.03;5265836;28;20420;-70
2023/03/02 06:19:18;;;;;;;52.92;31.38;;;;;;;-3.42;100.00;102134.13;5265225;28;20033;-70
2023/03/02 06:21:50;;;;;;;57.10;35.00;;;;;;;-3.41;100.00;102140.97;5280830;28;20468;-70
2023/03/02 06:24:21;;;;;;;55.03;31.43;;;;;;;-3.41;100.00;102146.97;5265076;28;20067;-69
2023/03/02 06:26:53;;;;;;;56.43;33.50;;;;;;;-3.39;100.00;102150.50;5265317;28;20128;-69
2023/03/02 06:29:24;;;;;;;61.40;33.17;;;;;;;-3.39;100.00;102154.72;5265206;28;20040;-69
2023/03/02 06:31:56;;;;;;;59.50;35.60;;;;;;;-3.38;100.00;102152.28;5264017;28;20418;-69
2023/03/02 06:34:28;;;;;;;63.20;36.20;;;;;;;-3.35;100.00;102161.78;5264649;28;20103;-69
2023/03/02 06:36:59;;;;;;;65.80;35.28;;;;;;;-3.34;100.00;102153.38;5263925;28;20068;-69
2023/03/02 06:39:32;;;;;;;65.80;36.67;;;;;;;-3.28;100.00;102160.50;5264644;28;20060;-69
2023/03/02 06:42:04;;;;;;;64.50;35.22;;;;;;;-3.25;100.00;102170.91;5264849;28;20036;-69
2023/03/02 06:44:35;;;;;;;64.63;38.50;;;;;;;-3.22;100.00;102171.13;5264909;28;20029;-70
2023/03/02 06:47:06;;;;;;;61.53;37.37;;;;;;;-3.17;100.00;102175.75;5264831;28;20063;-70
2023/03/02 06:49:38;;;;;;;65.70;36.20;;;;;;;-3.13;100.00;102169.19;5264810;28;20029;-70
2023/03/02 06:52:12;;;;;;;67.40;36.20;;;;;;;-3.14;100.00;102173.41;5264814;28;20037;-70
2023/03/02 06:54:43;;;;;;;68.65;36.67;;;;;;;-3.09;100.00;102170.25;5264738;28;20111;-71
2023/03/02 06:57:15;;;;;;;68.33;35.70;;;;;;;-3.04;100.00;102169.78;5264453;28;20112;-70
2023/03/02 06:59:46;;;;;;;58.87;35.37;;;;;;;-2.99;100.00;102181.16;5264479;28;20469;-70
2023/03/02 07:02:17;;;;;;;64.87;36.87;;;;;;;-2.94;100.00;102181.47;5263997;28;20488;-70
2023/03/02 07:04:49;;;;;;;61.37;35.57;;;;;;;-2.92;100.00;102174.78;5263833;28;20422;-69
2023/03/02 07:07:20;;;;;;;65.17;34.97;;;;;;;-2.88;100.00;102178.41;5264609;28;20029;-69
2023/03/02 07:09:51;;;;;;;68.00;36.13;;;;;;;-2.84;100.00;102175.28;5264550;28;20037;-69
2023/03/02 07:12:23;;;;;;;59.97;33.77;;;;;;;-2.79;100.00;102184.13;5264970;28;20110;-69
2023/03/02 07:14:55;;;;;;;64.77;37.33;;;;;;;-2.75;100.00;102188.66;5266480;28;20124;-69
2023/03/02 07:17:26;;;;;;;65.67;36.00;;;;;;;-2.71;100.00;102188.03;5266412;28;20619;-69
2023/03/02 07:19:57;;;;;;;65.47;35.80;;;;;;;-2.64;100.00;102185.09;5265178;28;20063;-69
2023/03/02 07:22:29;;;;;;;68.83;34.57;;;;;;;-2.59;100.00;102183.72;5264718;28;20075;-69
2023/03/02 07:25:00;;;;;;;68.57;35.47;;;;;;;-2.51;100.00;102183.31;5264369;28;20036;-69
2023/03/02 07:27:32;;;;;;;57.33;33.20;;;;;;;-2.45;100.00;102189.69;5263916;28;20037;-69
2023/03/02 07:30:05;;;;;;;62.07;35.17;;;;;;;-2.36;100.00;102188.50;5264122;28;20025;-70
2023/03/02 07:32:36;;;;;;;55.10;33.50;;;;;;;-2.27;100.00;102183.94;5262798;28;20192;-70
2023/03/02 07:35:08;;;;;;;63.83;32.50;;;;;;;-2.18;100.00;102188.75;5261984;28;20115;-70
2023/03/02 07:37:40;;;;;;;56.95;32.72;;;;;;;-2.09;100.00;102195.31;5264079;28;20044;-69
2023/03/02 07:40:12;;;;;;;60.10;34.27;;;;;;;-2.00;100.00;102189.88;5263639;28;20037;-70
2023/03/02 07:42:43;;;;;;;54.47;30.85;;;;;;;-1.89;100.00;102190.53;5263857;28;20025;-69
2023/03/02 07:45:15;;;;;;;57.43;34.10;;;;;;;-1.77;100.00;102191.28;5263775;28;20036;-70
2023/03/02 07:47:47;;;;;;;59.47;33.00;;;;;;;-1.67;100.00;102183.38;5262628;28;20080;-69
2023/03/02 07:50:18;;;;;;;55.47;32.07;;;;;;;-1.55;100.00;102179.78;5263235;28;20029;-69
2023/03/02 07:52:50;;;;;;;55.20;32.80;;;;;;;-1.46;100.00;102188.00;5263595;28;20380;-70
2023/03/02 07:55:21;;;;;;;52.83;30.83;;;;;;;-1.29;100.00;102186.41;5263534;28;20453;-69
2023/03/02 07:57:53;;;;;;;54.13;33.03;;;;;;;-1.21;100.00;102177.50;5263289;28;20476;-70
2023/03/02 08:00:24;;;;;;;48.47;31.07;;;;;;;-1.08;100.00;102191.00;5278891;28;20033;-70
2023/03/02 08:02:56;;;;;;;46.07;27.93;;;;;;;-0.99;100.00;102181.28;5263014;28;20060;-70
2023/03/02 08:05:27;;;;;;;46.90;29.67;;;;;;;-0.86;100.00;102186.31;5262970;28;20043;-70
2023/03/02 08:07:58;;;;;;;51.03;30.27;;;;;;;-0.73;100.00;102196.44;5263192;28;20025;-70
2023/03/02 08:10:32;;;;;;;49.00;27.57;;;;;;;-0.64;100.00;102190.94;5263325;28;20051;-70
2023/03/02 08:13:03;;;;;;;49.63;28.88;;;;;;;-0.47;100.00;102191.88;5262552;28;20040;-70
2023/03/02 08:15:35;;;;;;;44.67;27.47;;;;;;;-0.31;99.49;102187.59;5263257;28;20457;-70
2023/03/02 08:18:06;;;;;;;44.83;27.80;;;;;;;-0.20;98.17;102199.31;5263128;28;20127;-70
2023/03/02 08:20:38;;;;;;;45.03;27.83;;;;;;;-0.05;97.47;102191.53;5263140;28;20029;-70
2023/03/02 08:23:09;;;;;;;41.20;26.17;;;;;;;0.13;97.08;102189.06;5278467;28;20047;-70
2023/03/02 08:25:41;;;;;;;46.07;25.50;;;;;;;0.20;94.66;102193.72;5262821;28;20098;-70
2023/03/02 08:28:13;;;;;;;39.72;24.42;;;;;;;0.36;94.19;102186.03;5261711;28;20468;-69
2023/03/02 08:30:44;;;;;;;43.77;26.80;;;;;;;0.60;93.76;102188.09;5262962;28;20044;-71
2023/03/02 08:33:16;;;;;;;42.87;25.87;;;;;;;0.84;92.01;102198.69;5262392;28;20112;-71
2023/03/02 08:35:59;;;;;;;41.30;23.87;;;;;;;1.13;90.74;102203.47;5261721;28;20029;-70
2023/03/02 08:38:31;;;;;;;37.78;23.80;;;;;;;1.34;88.49;102195.97;5262866;28;20036;-71
2023/03/02 08:41:06;;;;;;;36.83;23.80;;;;;;;1.58;87.73;102201.38;5262751;28;20106;-70
2023/03/02 08:43:37;;;;;;;41.83;23.95;;;;;;;1.67;85.08;102194.06;5262755;28;20032;-70
2023/03/02 08:46:11;;;;;;;33.80;21.93;;;;;;;1.95;83.94;102190.22;5262546;28;20021;-70
2023/03/02 08:48:43;;;;;;;34.72;22.50;;;;;;;2.17;83.32;102199.75;5262563;28;20111;-71
2023/03/02 08:51:18;;;;;;;35.08;22.38;;;;;;;2.46;80.30;102192.41;5277977;28;20032;-70
2023/03/02 08:53:53;;;;;;;31.58;20.77;;;;;;;2.68;78.98;102194.22;5262112;28;20032;-71
2023/03/02 08:56:29;;;;;;;31.48;20.90;;;;;;;2.98;79.06;102194.63;5262887;28;20062;-70
2023/03/02 08:59:03;;;;;;;25.95;19.15;;;;;;;3.09;74.79;102195.94;5261277;28;20029;-71
2023/03/02 09:01:36;;;;;;;29.73;18.85;;;;;;;3.15;72.70;102184.13;5262457;28;20029;-69
2023/03/02 09:04:08;;;;;;;31.13;19.83;;;;;;;3.55;73.20;102191.72;5261725;28;20036;-69
2023/03/02 09:06:42;;;;;;;32.85;20.67;;;;;;;3.67;71.46;102182.69;5262463;28;20174;-70
2023/03/02 09:09:14;;;;;;;27.08;18.60;;;;;;;3.64;68.19;102184.34;5262382;28;20029;-69
2023/03/02 09:11:45;;;;;;;27.67;18.27;;;;;;;3.82;67.91;102178.13;5262287;28;20060;-70
2023/03/02 09:14:16;;;;;;;22.43;17.03;;;;;;;4.07;67.53;102181.59;5262190;28;20025;-70
2023/03/02 09:16:48;;;;;;;32.13;18.43;;;;;;;4.36;66.33;102172.31;5262271;28;20067;-70
2023/03/02 09:19:20;;;;;;;24.63;16.27;;;;;;;4.68;65.86;102173.41;5262200;28;20025;-70
2023/03/02 09:21:51;;;;;;;28.63;17.73;;;;;;;4.88;63.97;102179.25;5262221;28;20079;-69
2023/03/02 09:24:23;;;;;;;24.10;16.57;;;;;;;5.06;62.54;102170.34;5279169;28;20033;-70
2023/03/02 09:26:54;;;;;;;24.10;18.03;;;;;;;5.36;62.20;102173.03;5266482;28;20408;-70
2023/03/02 09:29:26;;;;;;;23.57;17.17;;;;;;;5.65;60.66;102173.91;5266180;28;20563;-70
2023/03/02 09:31:57;;;;;;;22.27;15.97;;;;;;;6.12;59.77;102176.16;5265931;28;20384;-71
2023/03/02 09:34:29;;;;;;;21.87;16.90;;;;;;;6.23;57.86;102170.38;5264543;28;20025;-70
2023/03/02 09:37:00;;;;;;;22.80;16.80;;;;;;;6.42;56.77;102164.84;5266010;28;20033;-71
2023/03/02 09:39:31;;;;;;;22.00;15.80;;;;;;;6.40;56.01;102169.13;5265925;28;20029;-70
2023/03/02 09:42:43;;;;;;;24.23;16.73;;;;;;;7.30;57.94;102170.50;5266081;28;20032;-70
2023/03/02 09:45:24;;;;;;;21.02;16.20;;;;;;;6.80;53.03;102171.88;5244761;28;20037;-70
2023/03/02 09:48:35;;;;;;;22.23;16.02;;;;;;;7.37;55.28;102168.03;5265717;28;20029;-70
2023/03/02 09:51:31;;;;;;;23.10;15.75;;;;;;;7.69;52.10;102162.69;5265597;28;20170;-70
2023/03/02 09:54:08;;;;;;;20.15;15.18;;;;;;;7.85;50.16;102165.63;5265779;28;20033;-70
2023/03/02 09:56:47;;;;;;;21.77;15.52;;;;;;;7.78;49.57;102170.69;5266363;28;20033;-71
2023/03/02 09:59:30;;;;;;;20.80;15.23;;;;;;;8.03;49.29;102157.34;5265843;28;20464;-70
2023/03/02 10:02:22;;;;;;;20.63;14.98;;;;;;;8.70;50.20;102150.78;5265654;28;20028;-71
2023/03/02 10:04:56;;;;;;;22.10;14.10;;;;;;;8.85;46.95;102152.75;5265371;28;20166;-70
2023/03/02 10:07:30;;;;;;;22.75;14.88;;;;;;;8.99;45.18;102155.59;5267001;28;20079;-71
2023/03/02 10:10:17;;;;;;;17.85;13.80;;;;;;;9.29;43.27;102156.06;5270333;28;20039;-69
2023/03/02 10:12:51;;;;;;;20.05;13.77;;;;;;;9.57;42.96;102156.44;5269781;28;20049;-71
2023/03/02 10:15:29;;;;;;;19.65;14.43;;;;;;;9.86;42.02;102159.41;5265858;28;20060;-70
2023/03/02 10:18:36;;;;;;;18.13;14.18;;;;;;;10.14;44.26;102151.94;5265798;28;20112;-69
2023/03/02 10:21:23;;;;;;;21.20;15.23;;;;;;;10.30;41.40;102154.69;5263154;28;20408;-69
2023/03/02 10:24:00;;;;;;;20.27;14.88;;;;;;;10.73;41.46;102156.00;5265346;28;20354;-69
2023/03/02 10:26:43;;;;;;;17.02;12.23;;;;;;;10.86;40.68;102154.34;5265470;28;20446;-70
2023/03/02 10:29:43;;;;;;;15.82;12.80;;;;;;;11.40;40.73;102159.97;5265592;28;20082;-69
2023/03/02 10:32:22;;;;;;;19.15;12.38;;;;;;;11.78;39.28;102161.00;5265340;28;20052;-70
2023/03/02 10:34:54;;;;;;;16.08;12.30;;;;;;;11.58;36.74;102155.69;5264768;28;20106;-70
2023/03/02 10:37:29;;;;;;;15.53;11.70;;;;;;;11.88;35.63;102151.47;5264152;28;20079;-70
2023/03/02 10:40:00;;;;;;;16.45;11.73;;;;;;;12.27;35.97;102142.00;5263861;28;20033;-70
2023/03/02 10:42:42;;;;;;;15.17;11.67;;;;;;;12.40;35.77;102149.03;5264871;28;20025;-70
2023/03/02 10:45:30;;;;;;;15.93;11.68;;;;;;;12.37;35.75;102151.63;5264885;28;20120;-70
2023/03/02 10:48:08;;;;;;;15.75;11.60;;;;;;;12.29;34.47;102148.13;5264871;28;20461;-70
2023/03/02 10:50:41;;;;;;;14.23;11.07;;;;;;;12.31;34.69;102133.31;5264813;28;20025;-70
2023/03/02 10:53:17;;;;;;;14.13;11.57;;;;;;;12.45;34.19;102141.19;5264644;28;20025;-70
2023/03/02 10:55:52;;;;;;;15.13;11.85;;;;;;;12.86;33.65;102140.31;5264717;28;20044;-70
2023/03/02 10:58:32;;;;;;;14.48;11.65;;;;;;;13.91;33.36;102138.34;5264629;28;20086;-70
2023/03/02 11:01:13;;;;;;;14.98;11.77;;;;;;;13.89;31.91;102126.09;5264613;28;20032;-70
2023/03/02 11:03:56;;;;;;;15.45;12.13;;;;;;;14.21;33.09;102139.88;5264364;28;20531;-69
2023/03/02 11:06:28;;;;;;;16.73;12.65;;;;;;;14.37;31.14;102137.16;5264472;28;20073;-70
2023/03/02 11:09:04;;;;;;;;;;;;;;;15.44;32.01;102129.22;5264816;28;20053;-70
2023/03/02 11:11:35;;;;;;;14.45;11.68;;;;;;;14.44;30.60;102133.63;5264309;28;19916;-71
2023/03/02 11:14:16;;;;;;;16.03;11.97;;;;;;;15.19;31.57;102131.25;5264412;28;20090;-70
2023/03/02 11:16:47;;;;;;;13.30;10.95;;;;;;;15.74;30.03;102122.72;5263930;28;20025;-70
2023/03/02 11:19:30;;;;;;;16.83;12.20;;;;;;;15.74;29.88;102121.84;5264107;28;20032;-70
2023/03/02 11:22:13;;;;;;;15.82;12.25;;;;;;;15.68;29.26;102125.41;5263932;28;20029;-70
2023/03/02 11:24:52;;;;;;;22.23;12.75;;;;;;;16.11;29.29;102124.00;5263875;28;20445;-70
2023/03/02 11:27:28;;;;;;;14.57;12.30;;;;;;;15.30;28.97;102121.50;5264340;28;20024;-70
2023/03/02 11:30:06;;;;;;;16.15;12.98;;;;;;;15.29;30.47;102125.00;5264104;28;20025;-70
2023/03/02 11:33:00;;;;;;;15.73;13.57;;;;;;;16.56;29.29;102121.56;5262833;28;20029;-70
2023/03/02 11:35:37;;;;;;;17.30;13.82;;;;;;;16.22;29.23;102117.69;5263585;28;20416;-70
2023/03/02 11:38:15;;;;;;;17.33;14.32;;;;;;;15.33;30.55;102113.59;5262570;28;20028;-70
2023/03/02 11:40:53;;;;;;;15.55;13.38;;;;;;;16.54;29.58;102113.69;5263769;28;20457;-70